PWSweather.com
Personal Weather Stations
Station Observations
KVAGLENALL
West Henrico, Glen Allen, VA 23060-6503

West HenricoGlen Allen, VA 23060-6503

Lat: 37.6554, Lon: -77.5693

Elevation: 273

Station Type: Davis Vantage Pro II

www.glenallenweather.com

High Low Average
Temperature 67.5°F19.7°C 42.7°F5.9°C 55.4°F13.0°C
Dew Point 58.5°F14.7°C 41.1°F5.1°C 50.9°F10.5°C
Winds 4.1 mph 6.6 kmh 0.1 mph 0.2 kmh 1.0 mph S1.6 kmh S
Wind Gusts 9.1 mph14.6 kmh 0.1 mph0.2 kmh 2.0 mph3.2 kmh
Humidity 95% 69% 85%
Pressure 30.26 in1024.7 mb 30.18 in1022.0 mb -
Precipitation 0.00 in0.0 mm - -
Hour Temp Dew Point Humidity Winds Wind Gusts Pressure Precip Precip Rate Daily Precip Total
12:00 AM 48.5°F9.2°C 44.9°F7.2°C 87% 0.1 mph E0.2 kmh E 1.1 mph1.8 kmh 30.20 in1022.7 mb 0.00 in0.0 mm 0.00 in0.0 mm 0.00 in0.0 mm
12:15 AM 48.2°F9.0°C 44.6°F7.0°C 87% 1.0 mph ESE1.6 kmh ESE 1.1 mph1.8 kmh 30.20 in1022.7 mb 0.00 in0.0 mm 0.00 in0.0 mm 0.00 in0.0 mm
12:30 AM 47.8°F8.8°C 44.2°F6.8°C 87% 0.1 mph E0.2 kmh E 0.1 mph0.2 kmh 30.20 in1022.7 mb 0.00 in0.0 mm 0.00 in0.0 mm 0.00 in0.0 mm
12:45 AM 47.3°F8.5°C 44.3°F6.8°C 89% 0.1 mph E0.2 kmh E 0.1 mph0.2 kmh 30.20 in1022.7 mb 0.00 in0.0 mm 0.00 in0.0 mm 0.00 in0.0 mm
01:00 AM 47.1°F8.4°C 44.4°F6.9°C 90% 0.1 mph E0.2 kmh E 0.1 mph0.2 kmh 30.21 in1023.0 mb 0.00 in0.0 mm 0.00 in0.0 mm 0.00 in0.0 mm
01:15 AM 46.3°F7.9°C 43.9°F6.6°C 91% 0.1 mph E0.2 kmh E 0.1 mph0.2 kmh 30.21 in1023.0 mb 0.00 in0.0 mm 0.00 in0.0 mm 0.00 in0.0 mm
01:30 AM 45.8°F7.7°C 43.4°F6.3°C 91% 0.1 mph E0.2 kmh E 0.1 mph0.2 kmh 30.21 in1023.0 mb 0.00 in0.0 mm 0.00 in0.0 mm 0.00 in0.0 mm
01:45 AM 45.7°F7.6°C 43.5°F6.4°C 92% 0.1 mph E0.2 kmh E 0.1 mph0.2 kmh 30.21 in1023.0 mb 0.00 in0.0 mm 0.00 in0.0 mm 0.00 in0.0 mm
02:00 AM 45.5°F7.5°C 43.6°F6.4°C 93% 0.1 mph E0.2 kmh E 0.1 mph0.2 kmh 30.21 in1023.0 mb 0.00 in0.0 mm 0.00 in0.0 mm 0.00 in0.0 mm
02:15 AM 45.4°F7.4°C 43.5°F6.4°C 93% 0.1 mph E0.2 kmh E 0.1 mph0.2 kmh 30.20 in1022.7 mb 0.00 in0.0 mm 0.00 in0.0 mm 0.00 in0.0 mm
02:30 AM 45.3°F7.4°C 43.4°F6.3°C 93% 0.1 mph E0.2 kmh E 0.1 mph0.2 kmh 30.20 in1022.7 mb 0.00 in0.0 mm 0.00 in0.0 mm 0.00 in0.0 mm
02:45 AM 45.2°F7.3°C 43.3°F6.3°C 93% 0.1 mph ESE0.2 kmh ESE 1.1 mph1.8 kmh 30.20 in1022.7 mb 0.00 in0.0 mm 0.00 in0.0 mm 0.00 in0.0 mm
03:00 AM 45.7°F7.6°C 43.8°F6.6°C 93% 1.0 mph E1.6 kmh E 1.1 mph1.8 kmh 30.19 in1022.4 mb 0.00 in0.0 mm 0.00 in0.0 mm 0.00 in0.0 mm
03:15 AM 46.0°F7.8°C 44.1°F6.7°C 93% 1.0 mph E1.6 kmh E 2.1 mph3.4 kmh 30.19 in1022.4 mb 0.00 in0.0 mm 0.00 in0.0 mm 0.00 in0.0 mm
03:30 AM 46.0°F7.8°C 44.1°F6.7°C 93% 0.1 mph E0.2 kmh E 2.1 mph3.4 kmh 30.19 in1022.4 mb 0.00 in0.0 mm 0.00 in0.0 mm 0.00 in0.0 mm
03:45 AM 46.5°F8.1°C 44.6°F7.0°C 93% 3.0 mph ESE4.8 kmh ESE 3.1 mph5.0 kmh 30.18 in1022.0 mb 0.00 in0.0 mm 0.00 in0.0 mm 0.00 in0.0 mm
04:00 AM 47.2°F8.4°C 44.8°F7.1°C 91% 1.0 mph E1.6 kmh E 3.1 mph5.0 kmh 30.18 in1022.0 mb 0.00 in0.0 mm 0.00 in0.0 mm 0.00 in0.0 mm
04:15 AM 47.8°F8.8°C 45.1°F7.3°C 90% 2.0 mph SE3.2 kmh SE 6.1 mph9.8 kmh 30.18 in1022.0 mb 0.00 in0.0 mm 0.00 in0.0 mm 0.00 in0.0 mm
04:30 AM 47.9°F8.8°C 45.2°F7.3°C 90% 1.0 mph NE1.6 kmh NE 3.1 mph5.0 kmh 30.19 in1022.4 mb 0.00 in0.0 mm 0.00 in0.0 mm 0.00 in0.0 mm
04:45 AM 47.2°F8.4°C 44.8°F7.1°C 91% 1.0 mph NNW1.6 kmh NNW 2.1 mph3.4 kmh 30.20 in1022.7 mb 0.00 in0.0 mm 0.00 in0.0 mm 0.00 in0.0 mm
05:00 AM 46.3°F7.9°C 44.1°F6.7°C 92% 1.0 mph NNW1.6 kmh NNW 1.1 mph1.8 kmh 30.20 in1022.7 mb 0.00 in0.0 mm 0.00 in0.0 mm 0.00 in0.0 mm
05:15 AM 45.8°F7.7°C 43.6°F6.4°C 92% 1.0 mph N1.6 kmh N 3.1 mph5.0 kmh 30.20 in1022.7 mb 0.00 in0.0 mm 0.00 in0.0 mm 0.00 in0.0 mm
05:30 AM 45.3°F7.4°C 43.4°F6.3°C 93% 1.0 mph NNW1.6 kmh NNW 4.1 mph6.6 kmh 30.20 in1022.7 mb 0.00 in0.0 mm 0.00 in0.0 mm 0.00 in0.0 mm
05:45 AM 44.7°F7.1°C 42.8°F6.0°C 93% 0.1 mph NNW0.2 kmh NNW 1.1 mph1.8 kmh 30.21 in1023.0 mb 0.00 in0.0 mm 0.00 in0.0 mm 0.00 in0.0 mm
06:00 AM 44.0°F6.7°C 42.1°F5.6°C 93% 0.1 mph NNW0.2 kmh NNW 0.1 mph0.2 kmh 30.21 in1023.0 mb 0.00 in0.0 mm 0.00 in0.0 mm 0.00 in0.0 mm
06:15 AM 43.6°F6.4°C 41.7°F5.4°C 93% 0.1 mph NNW0.2 kmh NNW 0.1 mph0.2 kmh 30.20 in1022.7 mb 0.00 in0.0 mm 0.00 in0.0 mm 0.00 in0.0 mm
06:30 AM 43.3°F6.3°C 41.7°F5.4°C 94% 0.1 mph NNW0.2 kmh NNW 0.1 mph0.2 kmh 30.21 in1023.0 mb 0.00 in0.0 mm 0.00 in0.0 mm 0.00 in0.0 mm
06:45 AM 43.0°F6.1°C 41.4°F5.2°C 94% 0.1 mph NNW0.2 kmh NNW 0.1 mph0.2 kmh 30.21 in1023.0 mb 0.00 in0.0 mm 0.00 in0.0 mm 0.00 in0.0 mm
07:00 AM 42.7°F5.9°C 41.1°F5.1°C 94% 0.1 mph NNW0.2 kmh NNW 0.1 mph0.2 kmh 30.21 in1023.0 mb 0.00 in0.0 mm 0.00 in0.0 mm 0.00 in0.0 mm
07:15 AM 42.9°F6.1°C 41.3°F5.2°C 94% 0.1 mph NNW0.2 kmh NNW 0.1 mph0.2 kmh 30.21 in1023.0 mb 0.00 in0.0 mm 0.00 in0.0 mm 0.00 in0.0 mm
07:30 AM 43.1°F6.2°C 41.8°F5.4°C 95% 1.0 mph NNW1.6 kmh NNW 3.1 mph5.0 kmh 30.22 in1023.4 mb 0.00 in0.0 mm 0.00 in0.0 mm 0.00 in0.0 mm
07:45 AM 43.2°F6.2°C 41.9°F5.5°C 95% 2.0 mph N3.2 kmh N 2.1 mph3.4 kmh 30.22 in1023.4 mb 0.00 in0.0 mm 0.00 in0.0 mm 0.00 in0.0 mm
08:00 AM 43.5°F6.4°C 42.2°F5.7°C 95% 2.0 mph NNE3.2 kmh NNE 2.1 mph3.4 kmh 30.21 in1023.0 mb 0.00 in0.0 mm 0.00 in0.0 mm 0.00 in0.0 mm
08:15 AM 44.0°F6.7°C 42.7°F5.9°C 95% 1.0 mph NNE1.6 kmh NNE 2.1 mph3.4 kmh 30.22 in1023.4 mb 0.00 in0.0 mm 0.00 in0.0 mm 0.00 in0.0 mm
08:30 AM 44.5°F6.9°C 43.2°F6.2°C 95% 0.1 mph NNE0.2 kmh NNE 1.1 mph1.8 kmh 30.23 in1023.7 mb 0.00 in0.0 mm 0.00 in0.0 mm 0.00 in0.0 mm
08:45 AM 45.5°F7.5°C 44.2°F6.8°C 95% 1.0 mph NNE1.6 kmh NNE 2.1 mph3.4 kmh 30.24 in1024.0 mb 0.00 in0.0 mm 0.00 in0.0 mm 0.00 in0.0 mm
09:00 AM 47.2°F8.4°C 45.3°F7.4°C 93% 0.1 mph NNE0.2 kmh NNE 1.1 mph1.8 kmh 30.25 in1024.4 mb 0.00 in0.0 mm 0.00 in0.0 mm 0.00 in0.0 mm
09:15 AM 48.4°F9.1°C 45.7°F7.6°C 90% 0.1 mph N0.2 kmh N 3.1 mph5.0 kmh 30.25 in1024.4 mb 0.00 in0.0 mm 0.00 in0.0 mm 0.00 in0.0 mm
09:30 AM 48.8°F9.3°C 46.1°F7.8°C 90% 0.1 mph NNW0.2 kmh NNW 1.1 mph1.8 kmh 30.25 in1024.4 mb 0.00 in0.0 mm 0.00 in0.0 mm 0.00 in0.0 mm
09:45 AM 49.5°F9.7°C 46.6°F8.1°C 90% 2.0 mph N3.2 kmh N 3.1 mph5.0 kmh 30.25 in1024.4 mb 0.00 in0.0 mm 0.00 in0.0 mm 0.00 in0.0 mm
10:00 AM 50.3°F10.2°C 47.4°F8.6°C 90% 3.0 mph NE4.8 kmh NE 4.1 mph6.6 kmh 30.26 in1024.7 mb 0.00 in0.0 mm 0.00 in0.0 mm 0.00 in0.0 mm
10:15 AM 50.7°F10.4°C 47.5°F8.6°C 89% 2.0 mph N3.2 kmh N 2.1 mph3.4 kmh 30.25 in1024.4 mb 0.00 in0.0 mm 0.00 in0.0 mm 0.00 in0.0 mm
10:30 AM 51.4°F10.8°C 48.2°F9.0°C 89% 1.0 mph N1.6 kmh N 2.1 mph3.4 kmh 30.26 in1024.7 mb 0.00 in0.0 mm 0.00 in0.0 mm 0.00 in0.0 mm
10:45 AM 52.4°F11.3°C 48.6°F9.2°C 87% 1.0 mph NW1.6 kmh NW 3.1 mph5.0 kmh 30.26 in1024.7 mb 0.00 in0.0 mm 0.00 in0.0 mm 0.00 in0.0 mm
11:00 AM 54.4°F12.4°C 49.7°F9.8°C 84% 0.1 mph ENE0.2 kmh ENE 0.1 mph0.2 kmh 30.26 in1024.7 mb 0.00 in0.0 mm 0.00 in0.0 mm 0.00 in0.0 mm
11:15 AM 56.4°F13.6°C 50.6°F10.3°C 81% 2.0 mph E3.2 kmh E 4.1 mph6.6 kmh 30.25 in1024.4 mb 0.00 in0.0 mm 0.00 in0.0 mm 0.00 in0.0 mm
11:30 AM 57.6°F14.2°C 51.8°F11.0°C 81% 0.1 mph SW0.2 kmh SW 1.1 mph1.8 kmh 30.25 in1024.4 mb 0.00 in0.0 mm 0.00 in0.0 mm 0.00 in0.0 mm
11:45 AM 59.5°F15.3°C 53.0°F11.7°C 79% 2.0 mph S3.2 kmh S 4.1 mph6.6 kmh 30.25 in1024.4 mb 0.00 in0.0 mm 0.00 in0.0 mm 0.00 in0.0 mm
12:00 PM 60.1°F15.6°C 52.5°F11.4°C 76% 0.1 mph SE0.2 kmh SE 3.1 mph5.0 kmh 30.24 in1024.0 mb 0.00 in0.0 mm 0.00 in0.0 mm 0.00 in0.0 mm
12:15 PM 61.7°F16.5°C 53.7°F12.1°C 75% 2.0 mph S3.2 kmh S 7.1 mph11.4 kmh 30.23 in1023.7 mb 0.00 in0.0 mm 0.00 in0.0 mm 0.00 in0.0 mm
12:30 PM 63.6°F17.6°C 55.6°F13.1°C 75% 2.0 mph SE3.2 kmh SE 2.1 mph3.4 kmh 30.22 in1023.4 mb 0.00 in0.0 mm 0.00 in0.0 mm 0.00 in0.0 mm
12:45 PM 64.9°F18.3°C 55.7°F13.2°C 72% 2.0 mph SW3.2 kmh SW 9.1 mph14.6 kmh 30.22 in1023.4 mb 0.00 in0.0 mm 0.00 in0.0 mm 0.00 in0.0 mm
01:00 PM 65.3°F18.5°C 55.7°F13.2°C 71% 3.0 mph SSW4.8 kmh SSW 3.1 mph5.0 kmh 30.22 in1023.4 mb 0.00 in0.0 mm 0.00 in0.0 mm 0.00 in0.0 mm
01:15 PM 65.3°F18.5°C 55.3°F12.9°C 70% 1.0 mph S1.6 kmh S 5.1 mph8.2 kmh 30.21 in1023.0 mb 0.00 in0.0 mm 0.00 in0.0 mm 0.00 in0.0 mm
01:30 PM 66.4°F19.1°C 56.0°F13.3°C 69% 2.0 mph S3.2 kmh S 4.1 mph6.6 kmh 30.20 in1022.7 mb 0.00 in0.0 mm 0.00 in0.0 mm 0.00 in0.0 mm
01:45 PM 66.8°F19.3°C 56.7°F13.7°C 70% 4.1 mph SSW6.6 kmh SSW 4.1 mph6.6 kmh 30.21 in1023.0 mb 0.00 in0.0 mm 0.00 in0.0 mm 0.00 in0.0 mm
02:00 PM 67.4°F19.7°C 57.7°F14.3°C 71% 0.1 mph WSW0.2 kmh WSW 2.1 mph3.4 kmh 30.20 in1022.7 mb 0.00 in0.0 mm 0.00 in0.0 mm 0.00 in0.0 mm
02:15 PM 67.4°F19.7°C 57.3°F14.1°C 70% 2.0 mph N3.2 kmh N 2.1 mph3.4 kmh 30.20 in1022.7 mb 0.00 in0.0 mm 0.00 in0.0 mm 0.00 in0.0 mm
02:30 PM 67.1°F19.5°C 56.6°F13.7°C 69% 1.0 mph NW1.6 kmh NW 3.1 mph5.0 kmh 30.20 in1022.7 mb 0.00 in0.0 mm 0.00 in0.0 mm 0.00 in0.0 mm
02:45 PM 67.5°F19.7°C 57.0°F13.9°C 69% 0.1 mph NE0.2 kmh NE 1.1 mph1.8 kmh 30.19 in1022.4 mb 0.00 in0.0 mm 0.00 in0.0 mm 0.00 in0.0 mm
03:00 PM 67.4°F19.7°C 57.3°F14.1°C 70% 0.1 mph SW0.2 kmh SW 0.1 mph0.2 kmh 30.19 in1022.4 mb 0.00 in0.0 mm 0.00 in0.0 mm 0.00 in0.0 mm
03:15 PM 67.0°F19.4°C 56.9°F13.8°C 70% 0.1 mph WSW0.2 kmh WSW 1.1 mph1.8 kmh 30.19 in1022.4 mb 0.00 in0.0 mm 0.00 in0.0 mm 0.00 in0.0 mm
03:30 PM 67.1°F19.5°C 57.8°F14.3°C 72% 0.1 mph WSW0.2 kmh WSW 1.1 mph1.8 kmh 30.18 in1022.0 mb 0.00 in0.0 mm 0.00 in0.0 mm 0.00 in0.0 mm
03:45 PM 66.8°F19.3°C 57.5°F14.2°C 72% 0.1 mph WSW0.2 kmh WSW 0.1 mph0.2 kmh 30.19 in1022.4 mb 0.00 in0.0 mm 0.00 in0.0 mm 0.00 in0.0 mm
04:00 PM 66.6°F19.2°C 58.1°F14.5°C 74% 0.1 mph SW0.2 kmh SW 2.1 mph3.4 kmh 30.19 in1022.4 mb 0.00 in0.0 mm 0.00 in0.0 mm 0.00 in0.0 mm
04:15 PM 66.9°F19.4°C 57.6°F14.2°C 72% 1.0 mph S1.6 kmh S 2.1 mph3.4 kmh 30.19 in1022.4 mb 0.00 in0.0 mm 0.00 in0.0 mm 0.00 in0.0 mm
04:30 PM 66.6°F19.2°C 58.5°F14.7°C 75% 0.1 mph WSW0.2 kmh WSW 1.1 mph1.8 kmh 30.19 in1022.4 mb 0.00 in0.0 mm 0.00 in0.0 mm 0.00 in0.0 mm
04:45 PM 66.1°F18.9°C 57.6°F14.2°C 74% 1.0 mph WNW1.6 kmh WNW 1.1 mph1.8 kmh 30.19 in1022.4 mb 0.00 in0.0 mm 0.00 in0.0 mm 0.00 in0.0 mm
05:00 PM 65.3°F18.5°C 57.9°F14.4°C 77% 0.1 mph WNW0.2 kmh WNW 1.1 mph1.8 kmh 30.19 in1022.4 mb 0.00 in0.0 mm 0.00 in0.0 mm 0.00 in0.0 mm
05:15 PM 64.7°F18.2°C 58.4°F14.7°C 80% 0.1 mph WNW0.2 kmh WNW 0.1 mph0.2 kmh 30.19 in1022.4 mb 0.00 in0.0 mm 0.00 in0.0 mm 0.00 in0.0 mm
05:30 PM 63.9°F17.7°C 58.0°F14.4°C 81% 0.1 mph WNW0.2 kmh WNW 0.1 mph0.2 kmh 30.19 in1022.4 mb 0.00 in0.0 mm 0.00 in0.0 mm 0.00 in0.0 mm
05:45 PM 63.2°F17.3°C 57.6°F14.2°C 82% 0.1 mph WNW0.2 kmh WNW 0.1 mph0.2 kmh 30.20 in1022.7 mb 0.00 in0.0 mm 0.00 in0.0 mm 0.00 in0.0 mm
06:00 PM 62.6°F17.0°C 57.4°F14.1°C 83% 0.1 mph WNW0.2 kmh WNW 0.1 mph0.2 kmh 30.20 in1022.7 mb 0.00 in0.0 mm 0.00 in0.0 mm 0.00 in0.0 mm
06:15 PM 61.9°F16.6°C 57.0°F13.9°C 84% 0.1 mph WNW0.2 kmh WNW 0.1 mph0.2 kmh 30.20 in1022.7 mb 0.00 in0.0 mm 0.00 in0.0 mm 0.00 in0.0 mm
06:30 PM 61.4°F16.3°C 56.9°F13.8°C 85% 0.1 mph WNW0.2 kmh WNW 1.1 mph1.8 kmh 30.20 in1022.7 mb 0.00 in0.0 mm 0.00 in0.0 mm 0.00 in0.0 mm
06:45 PM 60.9°F16.1°C 56.7°F13.7°C 86% 0.1 mph WNW0.2 kmh WNW 0.1 mph0.2 kmh 30.21 in1023.0 mb 0.00 in0.0 mm 0.00 in0.0 mm 0.00 in0.0 mm
07:00 PM 60.3°F15.7°C 56.4°F13.6°C 87% 0.1 mph WNW0.2 kmh WNW 0.1 mph0.2 kmh 30.22 in1023.4 mb 0.00 in0.0 mm 0.00 in0.0 mm 0.00 in0.0 mm
07:15 PM 59.8°F15.4°C 56.2°F13.4°C 88% 0.1 mph WNW0.2 kmh WNW 0.1 mph0.2 kmh 30.22 in1023.4 mb 0.00 in0.0 mm 0.00 in0.0 mm 0.00 in0.0 mm
07:30 PM 59.6°F15.3°C 56.0°F13.3°C 88% 0.1 mph WNW0.2 kmh WNW 0.1 mph0.2 kmh 30.22 in1023.4 mb 0.00 in0.0 mm 0.00 in0.0 mm 0.00 in0.0 mm
07:45 PM 59.2°F15.1°C 56.0°F13.3°C 89% 1.0 mph E1.6 kmh E 1.1 mph1.8 kmh 30.22 in1023.4 mb 0.00 in0.0 mm 0.00 in0.0 mm 0.00 in0.0 mm
08:00 PM 59.2°F15.1°C 56.0°F13.3°C 89% 0.1 mph E0.2 kmh E 1.1 mph1.8 kmh 30.22 in1023.4 mb 0.00 in0.0 mm 0.00 in0.0 mm 0.00 in0.0 mm
08:15 PM 59.0°F15.0°C 56.1°F13.4°C 90% 0.1 mph E0.2 kmh E 0.1 mph0.2 kmh 30.22 in1023.4 mb 0.00 in0.0 mm 0.00 in0.0 mm 0.00 in0.0 mm
08:30 PM 58.5°F14.7°C 55.6°F13.1°C 90% 0.1 mph E0.2 kmh E 1.1 mph1.8 kmh 30.22 in1023.4 mb 0.00 in0.0 mm 0.00 in0.0 mm 0.00 in0.0 mm
08:45 PM 58.1°F14.5°C 55.2°F12.9°C 90% 0.1 mph E0.2 kmh E 0.1 mph0.2 kmh 30.22 in1023.4 mb 0.00 in0.0 mm 0.00 in0.0 mm 0.00 in0.0 mm
09:00 PM 57.9°F14.4°C 55.3°F12.9°C 91% 0.1 mph E0.2 kmh E 0.1 mph0.2 kmh 30.22 in1023.4 mb 0.00 in0.0 mm 0.00 in0.0 mm 0.00 in0.0 mm
09:15 PM 57.7°F14.3°C 55.1°F12.8°C 91% 0.1 mph E0.2 kmh E 0.1 mph0.2 kmh 30.22 in1023.4 mb 0.00 in0.0 mm 0.00 in0.0 mm 0.00 in0.0 mm
09:30 PM 57.4°F14.1°C 55.1°F12.8°C 92% 0.1 mph E0.2 kmh E 0.1 mph0.2 kmh 30.22 in1023.4 mb 0.00 in0.0 mm 0.00 in0.0 mm 0.00 in0.0 mm
09:45 PM 56.9°F13.8°C 54.9°F12.7°C 93% 0.1 mph E0.2 kmh E 0.1 mph0.2 kmh 30.22 in1023.4 mb 0.00 in0.0 mm 0.00 in0.0 mm 0.00 in0.0 mm
10:00 PM 57.1°F13.9°C 55.1°F12.8°C 93% 1.0 mph SSE1.6 kmh SSE 2.1 mph3.4 kmh 30.22 in1023.4 mb 0.00 in0.0 mm 0.00 in0.0 mm 0.00 in0.0 mm
10:15 PM 57.5°F14.2°C 55.2°F12.9°C 92% 0.1 mph S0.2 kmh S 2.1 mph3.4 kmh 30.22 in1023.4 mb 0.00 in0.0 mm 0.00 in0.0 mm 0.00 in0.0 mm
10:30 PM 58.7°F14.8°C 55.2°F12.9°C 88% 1.0 mph SSW1.6 kmh SSW 1.1 mph1.8 kmh 30.23 in1023.7 mb 0.00 in0.0 mm 0.00 in0.0 mm 0.00 in0.0 mm
10:45 PM 59.2°F15.1°C 55.0°F12.8°C 86% 1.0 mph SSE1.6 kmh SSE 3.1 mph5.0 kmh 30.23 in1023.7 mb 0.00 in0.0 mm 0.00 in0.0 mm 0.00 in0.0 mm
11:00 PM 59.6°F15.3°C 54.8°F12.7°C 84% 2.0 mph S3.2 kmh S 4.1 mph6.6 kmh 30.23 in1023.7 mb 0.00 in0.0 mm 0.00 in0.0 mm 0.00 in0.0 mm
11:15 PM 60.0°F15.6°C 54.8°F12.7°C 83% 2.0 mph S3.2 kmh S 4.1 mph6.6 kmh 30.23 in1023.7 mb 0.00 in0.0 mm 0.00 in0.0 mm 0.00 in0.0 mm
11:30 PM 60.4°F15.8°C 54.9°F12.7°C 82% 0.1 mph SE0.2 kmh SE 4.1 mph6.6 kmh 30.23 in1023.7 mb 0.00 in0.0 mm 0.00 in0.0 mm 0.00 in0.0 mm
11:45 PM 60.7°F15.9°C 54.9°F12.7°C 81% 1.0 mph S1.6 kmh S 3.1 mph5.0 kmh 30.23 in1023.7 mb 0.00 in0.0 mm 0.00 in0.0 mm 0.00 in0.0 mm